createdAt,value
2022-12-05T00:01:23.235Z,21.33
2022-12-05T00:03:54.416Z,18.80
2022-12-05T00:06:22.284Z,19.65
2022-12-05T00:08:49.940Z,18.55
2022-12-05T00:11:19.586Z,20.73
2022-12-05T00:13:48.309Z,26.85
2022-12-05T00:16:17.706Z,21.05
2022-12-05T00:18:44.468Z,20.55
2022-12-05T00:21:17.040Z,22.98
2022-12-05T00:23:43.808Z,19.33
2022-12-05T00:26:11.477Z,23.30
2022-12-05T00:28:38.679Z,16.40
2022-12-05T00:31:07.548Z,18.98
2022-12-05T00:33:34.418Z,20.33
2022-12-05T00:36:07.003Z,21.13
2022-12-05T00:38:34.205Z,22.65
2022-12-05T00:41:10.419Z,23.20
2022-12-05T00:43:37.588Z,21.05
2022-12-05T00:46:08.400Z,26.52
2022-12-05T00:48:35.136Z,20.02
2022-12-05T00:51:11.040Z,25.50
2022-12-05T00:53:38.261Z,23.35
2022-12-05T00:56:08.540Z,21.08
2022-12-05T00:58:35.887Z,22.70
2022-12-05T01:01:15.395Z,23.48
2022-12-05T01:03:43.238Z,22.73
2022-12-05T01:06:10.802Z,25.45
2022-12-05T01:08:37.493Z,20.80
2022-12-05T01:11:06.407Z,22.77
2022-12-05T01:13:33.881Z,23.98
2022-12-05T01:16:01.108Z,24.98
2022-12-05T01:18:28.801Z,26.15
2022-12-05T01:20:55.566Z,26.90
2022-12-05T01:23:23.160Z,28.33
2022-12-05T01:25:52.441Z,26.70
2022-12-05T01:28:19.711Z,25.23
2022-12-05T01:30:48.609Z,21.13
2022-12-05T01:33:17.151Z,23.48
2022-12-05T01:35:44.632Z,26.60
2022-12-05T01:38:13.081Z,23.38
2022-12-05T01:40:40.745Z,22.15
2022-12-05T01:43:25.576Z,20.70
2022-12-05T01:45:52.329Z,18.95
2022-12-05T01:48:23.839Z,19.30
2022-12-05T01:50:51.135Z,25.90
2022-12-05T01:53:19.008Z,23.20
2022-12-05T01:55:48.598Z,16.05
2022-12-05T01:58:16.096Z,14.43
2022-12-05T02:00:44.047Z,20.80
2022-12-05T02:03:18.480Z,20.20
2022-12-05T02:05:48.767Z,17.50
2022-12-05T02:08:16.153Z,18.70
2022-12-05T02:10:49.708Z,16.52
2022-12-05T02:13:52.068Z,15.68
2022-12-05T02:16:37.036Z,17.80
2022-12-05T02:19:31.704Z,16.33
2022-12-05T02:22:05.872Z,14.43
2022-12-05T02:24:47.789Z,13.80
2022-12-05T02:27:29.817Z,14.27
2022-12-05T02:30:05.478Z,13.60
2022-12-05T02:33:08.971Z,11.63
2022-12-05T02:35:38.704Z,12.10
2022-12-05T02:38:21.733Z,14.38
2022-12-05T02:41:17.056Z,12.90
2022-12-05T02:44:14.164Z,13.77
2022-12-05T02:46:42.801Z,12.45
2022-12-05T02:49:13.162Z,12.95
2022-12-05T02:51:47.174Z,11.80
2022-12-05T02:54:19.654Z,14.15
2022-12-05T02:59:18.491Z,13.55
2022-12-05T03:01:49.849Z,14.25
2022-12-05T03:04:19.083Z,14.10
2022-12-05T03:06:51.141Z,14.90
2022-12-05T03:09:26.440Z,14.60
2022-12-05T03:12:01.736Z,15.95
2022-12-05T03:14:40.710Z,12.02
2022-12-05T03:17:13.581Z,13.05
2022-12-05T03:19:52.243Z,11.80
2022-12-05T03:22:26.464Z,13.95
2022-12-05T03:24:53.800Z,13.82
2022-12-05T03:27:26.651Z,12.68
2022-12-05T03:29:58.506Z,14.10
2022-12-05T03:32:53.668Z,11.70
2022-12-05T03:35:29.340Z,14.35
2022-12-05T03:38:20.834Z,13.88
2022-12-05T03:41:07.833Z,13.05
2022-12-05T03:43:56.342Z,13.18
2022-12-05T03:46:32.733Z,14.70
2022-12-05T03:49:15.748Z,14.15
2022-12-05T03:51:59.210Z,16.15
2022-12-05T03:54:49.614Z,13.25
2022-12-05T03:57:37.617Z,14.25
2022-12-05T04:00:09.797Z,15.88
2022-12-05T04:02:52.423Z,16.08
2022-12-05T04:05:41.542Z,15.73
2022-12-05T04:08:17.900Z,18.17
2022-12-05T04:10:51.021Z,14.32
2022-12-05T04:13:29.763Z,11.93
2022-12-05T04:16:23.285Z,14.48
2022-12-05T04:19:05.244Z,17.13
2022-12-05T04:21:39.916Z,14.30
2022-12-05T04:24:34.660Z,16.98
2022-12-05T04:27:12.353Z,15.20
2022-12-05T04:30:10.447Z,17.88
2022-12-05T04:32:52.307Z,14.75
2022-12-05T04:35:34.594Z,16.75
2022-12-05T04:38:10.650Z,15.55
2022-12-05T04:41:05.526Z,18.42
2022-12-05T04:43:36.972Z,17.70
2022-12-05T04:46:08.246Z,23.50
2022-12-05T04:48:39.236Z,16.77
2022-12-05T04:51:09.424Z,17.10
2022-12-05T04:53:36.459Z,25.35
2022-12-05T04:56:04.891Z,16.65
2022-12-05T04:58:32.449Z,15.38
2022-12-05T05:01:20.100Z,15.52
2022-12-05T05:03:55.667Z,15.88
2022-12-05T05:06:22.334Z,16.65
2022-12-05T05:08:54.733Z,18.38
2022-12-05T05:13:49.953Z,15.07
2022-12-05T05:16:25.267Z,16.30
2022-12-05T05:18:53.001Z,16.10
2022-12-05T05:21:22.637Z,22.42
2022-12-05T05:23:50.111Z,21.48
2022-12-05T05:26:17.227Z,22.50
2022-12-05T05:28:44.074Z,24.67
2022-12-05T05:31:11.067Z,19.38
2022-12-05T05:33:38.195Z,20.08
2022-12-05T05:36:07.296Z,19.75
2022-12-05T05:38:38.687Z,21.10
2022-12-05T05:41:06.191Z,24.48
2022-12-05T05:43:32.904Z,19.15
2022-12-05T05:45:59.584Z,21.50
2022-12-05T05:48:26.201Z,21.90
2022-12-05T05:50:52.840Z,26.05
2022-12-05T05:53:19.466Z,22.00
2022-12-05T05:55:46.149Z,19.23
2022-12-05T05:58:12.763Z,22.38
2022-12-05T06:00:39.417Z,25.35
2022-12-05T06:03:06.240Z,21.75
2022-12-05T06:05:33.073Z,18.17
2022-12-05T06:07:59.808Z,20.75
2022-12-05T06:10:26.490Z,23.50
2022-12-05T06:12:53.126Z,23.02
2022-12-05T06:15:19.768Z,26.33
2022-12-05T06:17:46.434Z,21.88
2022-12-05T06:20:13.475Z,20.75
2022-12-05T06:22:40.143Z,21.88
2022-12-05T06:25:07.678Z,19.35
2022-12-05T06:27:34.828Z,17.90
2022-12-05T06:30:01.608Z,22.90
2022-12-05T06:32:29.976Z,16.30
2022-12-05T06:34:56.760Z,14.07
2022-12-05T06:37:23.429Z,24.85
2022-12-05T06:39:51.469Z,15.63
2022-12-05T06:42:18.067Z,18.08
2022-12-05T06:44:44.711Z,18.30
2022-12-05T06:47:11.352Z,23.55
2022-12-05T06:49:38.409Z,18.38
2022-12-05T06:52:05.197Z,21.13
2022-12-05T06:54:31.890Z,21.73
2022-12-05T06:56:58.522Z,21.13
2022-12-05T06:59:25.218Z,22.27
2022-12-05T07:01:51.969Z,20.15
2022-12-05T07:04:24.872Z,24.70
2022-12-05T07:06:53.226Z,21.63
2022-12-05T07:09:46.002Z,23.85
2022-12-05T07:12:14.568Z,24.27
2022-12-05T07:14:49.890Z,22.67
2022-12-05T07:17:21.533Z,26.45
2022-12-05T07:19:51.994Z,23.65
2022-12-05T07:22:20.539Z,25.90
2022-12-05T07:24:48.059Z,20.77
2022-12-05T07:27:15.673Z,18.17
2022-12-05T07:29:42.398Z,21.75
2022-12-05T07:32:09.352Z,17.73
2022-12-05T07:34:36.149Z,22.90
2022-12-05T07:37:02.755Z,17.60
2022-12-05T07:39:29.495Z,15.80
2022-12-05T07:41:56.142Z,24.27
2022-12-05T07:44:22.818Z,21.20
2022-12-05T07:46:49.498Z,22.48
2022-12-05T07:49:16.325Z,20.20
2022-12-05T07:51:42.981Z,17.48
2022-12-05T07:54:09.642Z,17.92
2022-12-05T07:56:36.282Z,14.98
2022-12-05T07:59:02.964Z,15.80
2022-12-05T08:01:30.233Z,12.55
2022-12-05T08:03:58.748Z,19.88
2022-12-05T08:06:28.268Z,16.77
2022-12-05T08:08:55.943Z,16.50
2022-12-05T08:11:26.665Z,15.65
2022-12-05T08:13:53.850Z,17.05
2022-12-05T08:16:23.810Z,17.25
2022-12-05T08:18:58.367Z,14.85
2022-12-05T08:21:25.394Z,15.68
2022-12-05T08:23:53.059Z,14.98
2022-12-05T08:26:24.418Z,12.77
2022-12-05T08:28:53.364Z,14.15
2022-12-05T08:31:24.297Z,16.13
2022-12-05T08:33:57.189Z,20.20
2022-12-05T08:36:27.121Z,16.77
2022-12-05T08:39:02.002Z,19.08
2022-12-05T08:41:30.266Z,14.68
2022-12-05T08:43:58.978Z,15.75
2022-12-05T08:46:26.065Z,14.20
2022-12-05T08:48:52.847Z,17.52
2022-12-05T08:51:19.557Z,15.75
2022-12-05T08:53:46.316Z,12.45
2022-12-05T08:56:13.393Z,12.75
2022-12-05T08:58:41.157Z,16.05
2022-12-05T09:01:20.383Z,13.23
2022-12-05T09:03:48.376Z,15.32
2022-12-05T09:06:16.251Z,12.63
2022-12-05T09:08:44.268Z,13.55
2022-12-05T09:11:13.300Z,15.43
2022-12-05T09:13:40.948Z,13.68
2022-12-05T09:16:13.750Z,13.25
2022-12-05T09:18:40.630Z,11.63
2022-12-05T09:21:09.408Z,13.15
2022-12-05T09:23:37.996Z,14.23
2022-12-05T09:26:06.398Z,12.07
2022-12-05T09:28:34.096Z,14.45
2022-12-05T09:31:04.173Z,15.18
2022-12-05T09:33:32.824Z,16.05
2022-12-05T09:35:59.646Z,13.25
2022-12-05T09:38:26.270Z,13.75
2022-12-05T09:41:45.164Z,15.07
2022-12-05T09:44:24.334Z,14.80
2022-12-05T09:47:05.849Z,14.25
2022-12-05T09:49:34.877Z,13.25
2022-12-05T09:52:03.786Z,14.25
2022-12-05T09:54:32.729Z,16.88
2022-12-05T09:57:00.085Z,14.55
2022-12-05T09:59:26.782Z,14.80
2022-12-05T10:02:07.379Z,15.90
2022-12-05T10:04:46.347Z,13.80
2022-12-05T10:07:12.954Z,14.50
2022-12-05T10:10:20.306Z,14.20
2022-12-05T10:13:03.084Z,15.45
2022-12-05T10:15:35.504Z,14.50
2022-12-05T10:20:46.991Z,13.40
2022-12-05T10:23:56.000Z,14.90
2022-12-05T10:26:17.053Z,15.77
2022-12-05T10:29:09.395Z,12.93
2022-12-05T10:31:38.486Z,15.63
2022-12-05T10:34:17.504Z,17.27
2022-12-05T10:37:05.551Z,14.45
2022-12-05T10:39:32.215Z,17.77
2022-12-05T10:41:59.440Z,16.02
2022-12-05T10:44:26.215Z,17.38
2022-12-05T10:46:52.954Z,17.33
2022-12-05T10:49:21.106Z,14.68
2022-12-05T10:51:49.144Z,17.08
2022-12-05T10:54:22.333Z,15.48
2022-12-05T10:56:51.023Z,18.55
2022-12-05T10:59:20.440Z,13.20
2022-12-05T11:01:52.399Z,15.55
2022-12-05T11:04:28.621Z,14.15
2022-12-05T11:07:05.820Z,12.45
2022-12-05T11:09:35.951Z,14.70
2022-12-05T11:12:14.673Z,13.07
2022-12-05T11:14:54.263Z,13.90
2022-12-05T11:17:38.782Z,11.95
2022-12-05T11:20:17.667Z,11.65
2022-12-05T11:22:48.886Z,15.15
2022-12-05T11:25:36.626Z,14.88
2022-12-05T11:28:21.785Z,14.43
2022-12-05T11:31:06.901Z,14.20
2022-12-05T11:33:35.937Z,12.70
2022-12-05T11:36:19.457Z,13.57
2022-12-05T11:38:46.786Z,12.77
2022-12-05T11:41:36.251Z,12.15
2022-12-05T11:44:18.091Z,11.93
2022-12-05T11:47:23.812Z,9.55
2022-12-05T11:50:09.002Z,13.25
2022-12-05T11:53:09.816Z,11.48
2022-12-05T11:55:47.218Z,9.70
2022-12-05T11:58:41.999Z,9.48
2022-12-05T12:01:25.660Z,10.10
2022-12-05T12:04:24.154Z,12.85
2022-12-05T12:07:06.666Z,13.10
2022-12-05T12:09:42.365Z,11.68
2022-12-05T12:12:33.254Z,9.73
2022-12-05T12:15:24.975Z,11.45
2022-12-05T12:18:08.536Z,10.60
2022-12-05T12:20:42.136Z,8.52
2022-12-05T12:23:49.616Z,10.50
2022-12-05T12:26:38.650Z,10.00
2022-12-05T12:29:18.940Z,10.63
2022-12-05T12:32:04.595Z,10.85
2022-12-05T12:34:40.316Z,10.20
2022-12-05T12:37:38.957Z,11.63
2022-12-05T12:40:31.972Z,12.35
2022-12-05T12:43:30.961Z,10.68
2022-12-05T12:46:19.048Z,14.47
2022-12-05T12:49:07.523Z,11.52
2022-12-05T12:51:34.612Z,11.57
2022-12-05T12:54:10.374Z,10.25
2022-12-05T12:57:08.169Z,8.98
2022-12-05T12:59:51.008Z,11.20
2022-12-05T13:02:35.435Z,7.97
2022-12-05T13:05:08.616Z,7.10
2022-12-05T13:07:48.971Z,7.85
2022-12-05T13:10:35.990Z,8.20
2022-12-05T13:13:05.065Z,8.68
2022-12-05T13:15:36.157Z,7.43
2022-12-05T13:18:06.314Z,7.25
2022-12-05T13:20:35.877Z,7.38
2022-12-05T13:23:07.932Z,6.65
2022-12-05T13:28:25.923Z,8.95
2022-12-05T13:31:01.718Z,6.65
2022-12-05T13:33:50.216Z,6.82
2022-12-05T13:36:41.075Z,4.30
2022-12-05T13:39:39.425Z,7.93
2022-12-05T13:42:21.080Z,8.43
2022-12-05T13:45:05.911Z,5.20
2022-12-05T13:47:35.306Z,7.13
2022-12-05T13:50:16.034Z,7.90
2022-12-05T13:52:49.502Z,4.40
2022-12-05T13:55:56.177Z,8.07
2022-12-05T13:58:22.739Z,7.80
2022-12-05T14:00:53.126Z,8.77
2022-12-05T14:03:35.061Z,5.88
2022-12-05T14:06:01.719Z,5.07
2022-12-05T14:08:31.626Z,8.48
2022-12-05T14:10:58.214Z,7.30
2022-12-05T14:13:25.420Z,5.15
2022-12-05T14:15:54.640Z,9.32
2022-12-05T14:18:46.131Z,8.48
2022-12-05T14:21:37.395Z,4.60
2022-12-05T14:24:23.041Z,6.38
2022-12-05T14:27:07.551Z,7.28
2022-12-05T14:29:59.594Z,7.10
2022-12-05T14:32:38.908Z,7.20
2022-12-05T14:35:15.586Z,6.22
2022-12-05T14:37:54.415Z,8.55
2022-12-05T14:40:36.811Z,9.88
2022-12-05T14:43:22.399Z,6.75
2022-12-05T14:45:51.915Z,7.20
2022-12-05T14:48:30.912Z,7.70
2022-12-05T14:50:59.086Z,7.88
2022-12-05T14:53:33.929Z,8.73
2022-12-05T14:56:00.585Z,6.20
2022-12-05T14:58:56.965Z,8.85
2022-12-05T15:01:44.534Z,7.75
2022-12-05T15:04:33.273Z,11.10
2022-12-05T15:07:05.502Z,8.95
2022-12-05T15:09:49.428Z,12.60
2022-12-05T15:12:41.973Z,12.23
2022-12-05T15:15:34.920Z,13.00
2022-12-05T15:18:31.251Z,11.25
2022-12-05T15:21:04.053Z,13.82
2022-12-05T15:23:47.019Z,12.55
2022-12-05T15:26:44.777Z,11.48
2022-12-05T15:29:14.881Z,11.85
2022-12-05T15:31:47.713Z,12.35
2022-12-05T15:34:36.211Z,15.10
2022-12-05T15:37:12.754Z,16.77
2022-12-05T15:39:52.683Z,13.75
2022-12-05T15:42:24.822Z,13.88
2022-12-05T15:45:20.086Z,18.35
2022-12-05T15:47:49.311Z,11.23
2022-12-05T15:50:39.089Z,9.02
2022-12-05T15:53:14.308Z,10.55
2022-12-05T15:55:47.286Z,12.15
2022-12-05T15:58:39.210Z,13.35
2022-12-05T16:01:20.460Z,14.67
2022-12-05T16:03:55.564Z,11.88
2022-12-05T16:06:38.086Z,14.00
2022-12-05T16:09:14.257Z,14.63
2022-12-05T16:11:51.365Z,12.00
2022-12-05T16:14:37.276Z,12.63
2022-12-05T16:17:07.326Z,16.33
2022-12-05T16:19:34.176Z,12.80
2022-12-05T16:22:20.841Z,12.65
2022-12-05T16:24:55.416Z,14.45
2022-12-05T16:27:28.806Z,12.32
2022-12-05T16:30:14.451Z,13.45
2022-12-05T16:32:42.152Z,14.63
2022-12-05T16:35:32.503Z,12.60
2022-12-05T16:38:32.675Z,14.05
2022-12-05T16:41:09.142Z,12.35
2022-12-05T16:43:35.827Z,13.32
2022-12-05T16:46:11.843Z,12.13
2022-12-05T16:48:47.570Z,12.13
2022-12-05T16:51:14.380Z,12.27
2022-12-05T16:53:52.326Z,13.60
2022-12-05T16:56:27.920Z,13.48
2022-12-05T16:58:54.606Z,10.68
2022-12-05T17:01:24.035Z,8.13
2022-12-05T17:03:51.346Z,9.32
2022-12-05T17:06:27.093Z,8.77
2022-12-05T17:08:54.984Z,9.18
2022-12-05T17:11:28.231Z,8.68
2022-12-05T17:13:56.849Z,9.13
2022-12-05T17:16:23.664Z,8.02
2022-12-05T17:18:50.373Z,7.80
2022-12-05T17:21:19.964Z,11.75
2022-12-05T17:23:48.544Z,10.00
2022-12-05T17:26:17.879Z,11.52
2022-12-05T17:28:44.978Z,9.60
2022-12-05T17:31:23.079Z,9.88
2022-12-05T17:33:51.645Z,7.88
2022-12-05T17:36:21.072Z,8.00
2022-12-05T17:38:48.095Z,7.75
2022-12-05T17:41:17.499Z,7.78
2022-12-05T17:43:45.914Z,9.30
2022-12-05T17:46:17.166Z,8.15
2022-12-05T17:48:43.819Z,9.90
2022-12-05T17:51:14.621Z,13.02
2022-12-05T17:53:42.872Z,8.88
2022-12-05T17:56:09.568Z,9.10
2022-12-05T17:58:36.434Z,10.57
2022-12-05T18:01:03.977Z,11.98
2022-12-05T18:03:30.699Z,15.23
2022-12-05T18:05:57.550Z,17.17
2022-12-05T18:08:24.763Z,16.83
2022-12-05T18:10:51.819Z,16.27
2022-12-05T18:13:18.645Z,15.02
2022-12-05T18:15:48.054Z,14.30
2022-12-05T18:18:17.729Z,16.40
2022-12-05T18:20:44.463Z,15.35
2022-12-05T18:23:11.555Z,15.73
2022-12-05T18:25:39.234Z,15.38
2022-12-05T18:28:05.971Z,15.98
2022-12-05T18:30:32.796Z,13.52
2022-12-05T18:32:59.534Z,13.50
2022-12-05T18:35:41.560Z,15.18
2022-12-05T18:38:10.546Z,11.95
2022-12-05T18:40:37.541Z,15.23
2022-12-05T18:43:04.433Z,15.00
2022-12-05T18:45:31.181Z,17.75
2022-12-05T18:48:09.957Z,19.48
2022-12-05T18:50:44.939Z,17.95
2022-12-05T18:53:11.554Z,18.92
2022-12-05T18:55:58.346Z,15.70
2022-12-05T18:58:24.784Z,16.20
2022-12-05T19:00:51.506Z,17.20
2022-12-05T19:03:18.225Z,18.25
2022-12-05T19:05:44.878Z,19.92
2022-12-05T19:08:11.585Z,20.95
2022-12-05T19:10:38.328Z,18.98
2022-12-05T19:13:04.972Z,19.27
2022-12-05T19:15:31.691Z,17.33
2022-12-05T19:17:58.349Z,16.10
2022-12-05T19:20:24.988Z,18.65
2022-12-05T19:22:54.132Z,18.38
2022-12-05T19:25:23.041Z,14.88
2022-12-05T19:27:49.706Z,16.02
2022-12-05T19:30:16.475Z,19.30
2022-12-05T19:32:43.222Z,19.15
2022-12-05T19:35:10.329Z,34.30
2022-12-05T19:37:37.023Z,26.88
2022-12-05T19:40:03.902Z,31.75
2022-12-05T19:42:31.136Z,18.50
2022-12-05T19:44:58.645Z,19.73
2022-12-05T19:47:27.676Z,20.42
2022-12-05T19:49:54.345Z,13.80
2022-12-05T19:52:21.150Z,13.48
2022-12-05T19:54:47.882Z,13.88
2022-12-05T19:57:14.609Z,13.10
2022-12-05T19:59:41.221Z,12.75
2022-12-05T20:02:08.001Z,12.00
2022-12-05T20:04:34.869Z,12.15
2022-12-05T20:07:01.504Z,15.98
2022-12-05T20:09:28.188Z,14.90
2022-12-05T20:11:56.019Z,13.27
2022-12-05T20:14:24.876Z,12.50
2022-12-05T20:16:52.452Z,16.90
2022-12-05T20:19:19.189Z,12.75
2022-12-05T20:21:45.832Z,12.95
2022-12-05T20:24:12.533Z,12.55
2022-12-05T20:26:42.274Z,17.00
2022-12-05T20:29:10.215Z,13.07
2022-12-05T20:31:42.238Z,13.63
2022-12-05T20:34:13.335Z,15.43
2022-12-05T20:36:40.025Z,15.20
2022-12-05T20:39:10.443Z,20.15
2022-12-05T20:41:37.163Z,19.02
2022-12-05T20:44:08.559Z,14.73
2022-12-05T20:46:36.942Z,15.32
2022-12-05T20:49:04.044Z,16.90
2022-12-05T20:51:33.963Z,18.80
2022-12-05T20:54:03.281Z,19.73
2022-12-05T20:56:32.181Z,23.38
2022-12-05T20:59:02.029Z,21.67
2022-12-05T21:01:31.287Z,18.48
2022-12-05T21:03:58.270Z,18.50
2022-12-05T21:06:30.549Z,15.75
2022-12-05T21:08:58.981Z,17.20
2022-12-05T21:11:27.599Z,19.23
2022-12-05T21:14:00.278Z,13.68
2022-12-05T21:16:27.565Z,16.80
2022-12-05T21:18:56.015Z,17.48
2022-12-05T21:21:24.866Z,14.13
2022-12-05T21:23:55.494Z,14.23
2022-12-05T21:26:24.100Z,14.32
2022-12-05T21:28:51.489Z,10.85
2022-12-05T21:31:21.646Z,13.05
2022-12-05T21:33:54.470Z,13.57
2022-12-05T21:36:22.829Z,12.02
2022-12-05T21:38:54.133Z,14.15
2022-12-05T21:41:22.876Z,11.07
2022-12-05T21:43:54.136Z,14.57
2022-12-05T21:46:21.729Z,12.43
2022-12-05T21:48:48.494Z,12.20
2022-12-05T21:51:15.286Z,9.70
2022-12-05T21:53:42.132Z,8.50
2022-12-05T21:56:11.597Z,9.95
2022-12-05T21:58:42.272Z,8.98
2022-12-05T22:01:10.908Z,10.55
2022-12-05T22:03:38.317Z,11.32
2022-12-05T22:06:10.155Z,11.45
2022-12-05T22:08:38.301Z,13.23
2022-12-05T22:11:05.892Z,14.80
2022-12-05T22:13:33.235Z,13.32
2022-12-05T22:16:00.477Z,13.95
2022-12-05T22:18:28.216Z,14.32
2022-12-05T22:20:59.975Z,12.93
2022-12-05T22:23:27.259Z,10.88
2022-12-05T22:25:58.012Z,9.65
2022-12-05T22:28:24.667Z,10.95
2022-12-05T22:30:51.460Z,11.77
2022-12-05T22:33:18.117Z,10.95
2022-12-05T22:35:50.761Z,8.63
2022-12-05T22:38:19.034Z,10.55
2022-12-05T22:40:46.111Z,10.38
2022-12-05T22:43:12.921Z,12.40
2022-12-05T22:45:39.611Z,10.07
2022-12-05T22:48:06.346Z,16.70
2022-12-05T22:50:32.977Z,28.45
2022-12-05T22:52:59.704Z,27.35
2022-12-05T22:55:26.334Z,27.67
2022-12-05T22:57:52.951Z,22.35
2022-12-05T23:00:20.212Z,17.02
2022-12-05T23:02:47.028Z,21.50
2022-12-05T23:05:13.950Z,22.92
2022-12-05T23:07:40.749Z,18.95
2022-12-05T23:10:08.086Z,24.25
2022-12-05T23:12:34.807Z,25.42
2022-12-05T23:15:01.521Z,21.15
2022-12-05T23:17:29.618Z,18.90
2022-12-05T23:19:56.454Z,13.32
2022-12-05T23:22:23.338Z,18.02
2022-12-05T23:24:50.050Z,14.55
2022-12-05T23:27:19.721Z,13.68
2022-12-05T23:29:46.526Z,15.05
2022-12-05T23:32:13.449Z,13.23
2022-12-05T23:34:40.180Z,13.43
2022-12-05T23:37:06.900Z,14.95
2022-12-05T23:39:33.744Z,13.23
2022-12-05T23:42:00.508Z,10.38
2022-12-05T23:44:27.305Z,12.15
2022-12-05T23:46:54.894Z,14.90
2022-12-05T23:49:21.616Z,10.27
2022-12-05T23:51:49.656Z,12.82
2022-12-05T23:54:16.568Z,11.77
2022-12-05T23:56:43.281Z,11.05
2022-12-05T23:59:10.047Z,9.57
